sensor_id;sensor_type;location;lat;lon;timestamp;pressure;altitude;pressure_sealevel;temperature
76381;BMP280;65202;52.520;10.528;2023-07-20T00:01:00;100630.94;;;16.99
76381;BMP280;65202;52.520;10.528;2023-07-20T00:03:27;100628.19;;;16.84
76381;BMP280;65202;52.520;10.528;2023-07-20T00:05:54;100630.66;;;16.83
76381;BMP280;65202;52.520;10.528;2023-07-20T00:08:22;100619.84;;;16.91
76381;BMP280;65202;52.520;10.528;2023-07-20T00:10:49;100627.28;;;16.81
76381;BMP280;65202;52.520;10.528;2023-07-20T00:13:16;100627.41;;;16.90
76381;BMP280;65202;52.520;10.528;2023-07-20T00:15:45;100624.50;;;17.17
76381;BMP280;65202;52.520;10.528;2023-07-20T00:18:13;100612.84;;;17.25
76381;BMP280;65202;52.520;10.528;2023-07-20T00:20:40;100619.34;;;17.11
76381;BMP280;65202;52.520;10.528;2023-07-20T00:23:07;100623.00;;;16.78
76381;BMP280;65202;52.520;10.528;2023-07-20T00:25:35;100623.31;;;16.96
76381;BMP280;65202;52.520;10.528;2023-07-20T00:28:02;100624.69;;;17.28
76381;BMP280;65202;52.520;10.528;2023-07-20T00:30:30;100623.84;;;17.26
76381;BMP280;65202;52.520;10.528;2023-07-20T00:32:57;100627.19;;;17.25
76381;BMP280;65202;52.520;10.528;2023-07-20T00:35:24;100628.19;;;17.34
76381;BMP280;65202;52.520;10.528;2023-07-20T00:37:51;100623.16;;;17.36
76381;BMP280;65202;52.520;10.528;2023-07-20T00:40:19;100624.75;;;17.29
76381;BMP280;65202;52.520;10.528;2023-07-20T00:42:46;100631.44;;;17.27
76381;BMP280;65202;52.520;10.528;2023-07-20T00:45:13;100633.00;;;17.21
76381;BMP280;65202;52.520;10.528;2023-07-20T00:47:40;100629.38;;;17.05
76381;BMP280;65202;52.520;10.528;2023-07-20T00:50:09;100633.56;;;17.03
76381;BMP280;65202;52.520;10.528;2023-07-20T00:52:37;100642.28;;;16.72
76381;BMP280;65202;52.520;10.528;2023-07-20T00:55:09;100636.69;;;16.89
76381;BMP280;65202;52.520;10.528;2023-07-20T00:57:37;100639.16;;;16.86
76381;BMP280;65202;52.520;10.528;2023-07-20T01:00:06;100642.84;;;17.04
76381;BMP280;65202;52.520;10.528;2023-07-20T01:02:33;100642.06;;;17.07
76381;BMP280;65202;52.520;10.528;2023-07-20T01:05:01;100636.97;;;17.05
76381;BMP280;65202;52.520;10.528;2023-07-20T01:07:35;100642.03;;;17.05
76381;BMP280;65202;52.520;10.528;2023-07-20T01:13:12;100641.25;;;17.09
76381;BMP280;65202;52.520;10.528;2023-07-20T01:15:41;100643.25;;;16.80
76381;BMP280;65202;52.520;10.528;2023-07-20T01:18:08;100637.00;;;16.60
76381;BMP280;65202;52.520;10.528;2023-07-20T01:20:36;100638.75;;;16.64
76381;BMP280;65202;52.520;10.528;2023-07-20T01:23:21;100643.03;;;16.68
76381;BMP280;65202;52.520;10.528;2023-07-20T01:26:19;100635.69;;;16.80
76381;BMP280;65202;52.520;10.528;2023-07-20T01:29:17;100635.56;;;16.74
76381;BMP280;65202;52.520;10.528;2023-07-20T01:31:52;100644.16;;;16.82
76381;BMP280;65202;52.520;10.528;2023-07-20T01:34:23;100629.72;;;16.78
76381;BMP280;65202;52.520;10.528;2023-07-20T01:36:53;100635.41;;;16.65
76381;BMP280;65202;52.520;10.528;2023-07-20T01:39:23;100630.31;;;16.63
76381;BMP280;65202;52.520;10.528;2023-07-20T01:41:50;100633.31;;;16.43
76381;BMP280;65202;52.520;10.528;2023-07-20T01:44:18;100626.63;;;16.46
76381;BMP280;65202;52.520;10.528;2023-07-20T01:46:45;100633.47;;;16.52
76381;BMP280;65202;52.520;10.528;2023-07-20T01:49:12;100636.00;;;16.52
76381;BMP280;65202;52.520;10.528;2023-07-20T01:51:40;100637.66;;;16.50
76381;BMP280;65202;52.520;10.528;2023-07-20T01:54:07;100632.72;;;16.57
76381;BMP280;65202;52.520;10.528;2023-07-20T01:56:34;100638.59;;;16.55
76381;BMP280;65202;52.520;10.528;2023-07-20T01:59:01;100637.00;;;16.60
76381;BMP280;65202;52.520;10.528;2023-07-20T02:01:29;100629.19;;;16.48
76381;BMP280;65202;52.520;10.528;2023-07-20T02:03:56;100635.00;;;16.44
76381;BMP280;65202;52.520;10.528;2023-07-20T02:06:23;100641.41;;;16.27
76381;BMP280;65202;52.520;10.528;2023-07-20T02:08:51;100637.19;;;16.26
76381;BMP280;65202;52.520;10.528;2023-07-20T02:11:18;100638.56;;;16.14
76381;BMP280;65202;52.520;10.528;2023-07-20T02:13:46;100648.91;;;16.24
76381;BMP280;65202;52.520;10.528;2023-07-20T02:16:13;100643.13;;;16.28
76381;BMP280;65202;52.520;10.528;2023-07-20T02:18:40;100645.47;;;16.21
76381;BMP280;65202;52.520;10.528;2023-07-20T02:21:07;100641.25;;;16.21
76381;BMP280;65202;52.520;10.528;2023-07-20T02:23:34;100647.97;;;16.19
76381;BMP280;65202;52.520;10.528;2023-07-20T02:26:02;100639.84;;;16.32
76381;BMP280;65202;52.520;10.528;2023-07-20T02:28:29;100635.38;;;16.22
76381;BMP280;65202;52.520;10.528;2023-07-20T02:30:56;100648.91;;;16.24
76381;BMP280;65202;52.520;10.528;2023-07-20T02:33:23;100646.13;;;16.12
76381;BMP280;65202;52.520;10.528;2023-07-20T02:35:51;100642.81;;;16.15
76381;BMP280;65202;52.520;10.528;2023-07-20T02:38:18;100642.78;;;16.13
76381;BMP280;65202;52.520;10.528;2023-07-20T02:40:45;100643.56;;;16.11
76381;BMP280;65202;52.520;10.528;2023-07-20T02:43:12;100644.50;;;16.14
76381;BMP280;65202;52.520;10.528;2023-07-20T02:45:40;100641.97;;;16.14
76381;BMP280;65202;52.520;10.528;2023-07-20T02:48:08;100651.19;;;16.12
76381;BMP280;65202;52.520;10.528;2023-07-20T02:50:35;100659.34;;;16.01
76381;BMP280;65202;52.520;10.528;2023-07-20T02:53:03;100651.03;;;16.06
76381;BMP280;65202;52.520;10.528;2023-07-20T02:55:30;100654.47;;;16.08
76381;BMP280;65202;52.520;10.528;2023-07-20T02:57:58;100650.72;;;15.91
76381;BMP280;65202;52.520;10.528;2023-07-20T03:00:25;100655.00;;;15.94
76381;BMP280;65202;52.520;10.528;2023-07-20T03:02:53;100651.59;;;15.92
76381;BMP280;65202;52.520;10.528;2023-07-20T03:05:23;100660.72;;;15.85
76381;BMP280;65202;52.520;10.528;2023-07-20T03:07:55;100662.63;;;15.95
76381;BMP280;65202;52.520;10.528;2023-07-20T03:10:23;100662.38;;;15.85
76381;BMP280;65202;52.520;10.528;2023-07-20T03:12:50;100664.53;;;15.69
76381;BMP280;65202;52.520;10.528;2023-07-20T03:15:17;100663.88;;;15.76
76381;BMP280;65202;52.520;10.528;2023-07-20T03:17:44;100675.59;;;15.75
76381;BMP280;65202;52.520;10.528;2023-07-20T03:20:12;100669.22;;;15.54
76381;BMP280;65202;52.520;10.528;2023-07-20T03:22:39;100664.53;;;15.69
76381;BMP280;65202;52.520;10.528;2023-07-20T03:25:07;100662.78;;;15.66
76381;BMP280;65202;52.520;10.528;2023-07-20T03:27:35;100667.06;;;15.69
76381;BMP280;65202;52.520;10.528;2023-07-20T03:30:02;100666.59;;;15.86
76381;BMP280;65202;52.520;10.528;2023-07-20T03:32:30;100674.88;;;15.79
76381;BMP280;65202;52.520;10.528;2023-07-20T03:34:57;100674.78;;;15.75
76381;BMP280;65202;52.520;10.528;2023-07-20T03:37:24;100674.16;;;15.84
76381;BMP280;65202;52.520;10.528;2023-07-20T03:39:51;100674.78;;;15.75
76381;BMP280;65202;52.520;10.528;2023-07-20T03:42:18;100673.44;;;15.91
76381;BMP280;65202;52.520;10.528;2023-07-20T03:44:46;100669.94;;;15.85
76381;BMP280;65202;52.520;10.528;2023-07-20T03:47:13;100675.78;;;15.82
76381;BMP280;65202;52.520;10.528;2023-07-20T03:49:40;100673.53;;;15.94
76381;BMP280;65202;52.520;10.528;2023-07-20T03:52:08;100681.81;;;15.89
76381;BMP280;65202;52.520;10.528;2023-07-20T03:54:36;100674.22;;;15.87
76381;BMP280;65202;52.520;10.528;2023-07-20T03:57:03;100679.19;;;15.84
76381;BMP280;65202;52.520;10.528;2023-07-20T03:59:30;100676.28;;;16.06
76381;BMP280;65202;52.520;10.528;2023-07-20T04:01:58;100676.06;;;15.94
76381;BMP280;65202;52.520;10.528;2023-07-20T04:04:25;100679.63;;;16.04
76381;BMP280;65202;52.520;10.528;2023-07-20T04:06:52;100679.81;;;16.13
76381;BMP280;65202;52.520;10.528;2023-07-20T04:09:20;100683.72;;;15.99
76381;BMP280;65202;52.520;10.528;2023-07-20T04:11:47;100672.97;;;16.09
76381;BMP280;65202;52.520;10.528;2023-07-20T04:14:14;100676.97;;;15.98
76381;BMP280;65202;52.520;10.528;2023-07-20T04:16:41;100666.25;;;16.08
76381;BMP280;65202;52.520;10.528;2023-07-20T04:19:09;100658.53;;;16.02
76381;BMP280;65202;52.520;10.528;2023-07-20T04:21:40;100658.78;;;16.14
76381;BMP280;65202;52.520;10.528;2023-07-20T04:24:10;100669.75;;;16.14
76381;BMP280;65202;52.520;10.528;2023-07-20T04:26:37;100667.31;;;16.20
76381;BMP280;65202;52.520;10.528;2023-07-20T04:29:04;100662.81;;;16.04
76381;BMP280;65202;52.520;10.528;2023-07-20T04:31:32;100659.16;;;16.30
76381;BMP280;65202;52.520;10.528;2023-07-20T04:34:00;100659.03;;;16.24
76381;BMP280;65202;52.520;10.528;2023-07-20T04:36:28;100659.13;;;16.29
76381;BMP280;65202;52.520;10.528;2023-07-20T04:38:55;100667.31;;;16.20
76381;BMP280;65202;52.520;10.528;2023-07-20T04:41:22;100659.91;;;16.26
76381;BMP280;65202;52.520;10.528;2023-07-20T04:43:49;100665.22;;;16.38
76381;BMP280;65202;52.520;10.528;2023-07-20T04:46:17;100661.97;;;16.45
76381;BMP280;65202;52.520;10.528;2023-07-20T04:48:46;100668.69;;;16.43
76381;BMP280;65202;52.520;10.528;2023-07-20T04:51:14;100664.53;;;16.46
76381;BMP280;65202;52.520;10.528;2023-07-20T04:53:44;100659.53;;;16.48
76381;BMP280;65202;52.520;10.528;2023-07-20T04:56:11;100662.22;;;16.57
76381;BMP280;65202;52.520;10.528;2023-07-20T04:58:38;100664.88;;;16.63
76381;BMP280;65202;52.520;10.528;2023-07-20T05:01:06;100665.59;;;16.59
76381;BMP280;65202;52.520;10.528;2023-07-20T05:03:33;100671.47;;;16.56
76381;BMP280;65202;52.520;10.528;2023-07-20T05:06:01;100673.34;;;16.68
76381;BMP280;65202;52.520;10.528;2023-07-20T05:08:28;100680.31;;;16.35
76381;BMP280;65202;52.520;10.528;2023-07-20T05:10:55;100679.03;;;16.55
76381;BMP280;65202;52.520;10.528;2023-07-20T05:13:23;100677.13;;;16.45
76381;BMP280;65202;52.520;10.528;2023-07-20T05:15:53;100672.66;;;16.31
76381;BMP280;65202;52.520;10.528;2023-07-20T05:18:20;100674.38;;;16.76
76381;BMP280;65202;52.520;10.528;2023-07-20T05:20:48;100686.22;;;16.36
76381;BMP280;65202;52.520;10.528;2023-07-20T05:23:17;100684.53;;;16.35
76381;BMP280;65202;52.520;10.528;2023-07-20T05:25:46;100691.25;;;15.97
76381;BMP280;65202;52.520;10.528;2023-07-20T05:28:13;100703.72;;;15.90
76381;BMP280;65202;52.520;10.528;2023-07-20T05:30:41;100699.91;;;16.07
76381;BMP280;65202;52.520;10.528;2023-07-20T05:33:08;100698.94;;;16.40
76381;BMP280;65202;52.520;10.528;2023-07-20T05:35:36;100692.41;;;16.49
76381;BMP280;65202;52.520;10.528;2023-07-20T05:38:04;100704.06;;;16.43
76381;BMP280;65202;52.520;10.528;2023-07-20T05:40:32;100705.22;;;16.58
76381;BMP280;65202;52.520;10.528;2023-07-20T05:42:59;100698.75;;;16.72
76381;BMP280;65202;52.520;10.528;2023-07-20T05:45:27;100708.69;;;16.25
76381;BMP280;65202;52.520;10.528;2023-07-20T05:47:54;100700.59;;;16.38
76381;BMP280;65202;52.520;10.528;2023-07-20T05:50:22;100710.97;;;16.51
76381;BMP280;65202;52.520;10.528;2023-07-20T05:52:52;100720.53;;;15.88
76381;BMP280;65202;52.520;10.528;2023-07-20T05:55:20;100723.31;;;15.65
76381;BMP280;65202;52.520;10.528;2023-07-20T05:57:47;100724.81;;;15.92
76381;BMP280;65202;52.520;10.528;2023-07-20T06:00:15;100727.84;;;15.77
76381;BMP280;65202;52.520;10.528;2023-07-20T06:02:46;100732.66;;;16.04
76381;BMP280;65202;52.520;10.528;2023-07-20T06:05:15;100732.28;;;15.87
76381;BMP280;65202;52.520;10.528;2023-07-20T06:07:42;100742.56;;;15.60
76381;BMP280;65202;52.520;10.528;2023-07-20T06:10:09;100741.72;;;15.94
76381;BMP280;65202;52.520;10.528;2023-07-20T06:12:36;100737.84;;;16.11
76381;BMP280;65202;52.520;10.528;2023-07-20T06:15:05;100743.03;;;15.79
76381;BMP280;65202;52.520;10.528;2023-07-20T06:17:32;100744.06;;;15.52
76381;BMP280;65202;52.520;10.528;2023-07-20T06:20:00;100744.09;;;15.53
76381;BMP280;65202;52.520;10.528;2023-07-20T06:22:27;100745.03;;;15.57
76381;BMP280;65202;52.520;10.528;2023-07-20T06:24:54;100743.09;;;15.47
76381;BMP280;65202;52.520;10.528;2023-07-20T06:27:21;100733.94;;;15.85
76381;BMP280;65202;52.520;10.528;2023-07-20T06:29:49;100734.69;;;16.20
76381;BMP280;65202;52.520;10.528;2023-07-20T06:32:16;100736.22;;;16.12
76381;BMP280;65202;52.520;10.528;2023-07-20T06:34:43;100737.25;;;16.23
76381;BMP280;65202;52.520;10.528;2023-07-20T06:37:10;100734.56;;;16.15
76381;BMP280;65202;52.520;10.528;2023-07-20T06:39:38;100733.16;;;16.26
76381;BMP280;65202;52.520;10.528;2023-07-20T06:42:08;100738.94;;;16.22
76381;BMP280;65202;52.520;10.528;2023-07-20T06:44:35;100745.16;;;16.35
76381;BMP280;65202;52.520;10.528;2023-07-20T06:47:02;100740.25;;;16.42
76381;BMP280;65202;52.520;10.528;2023-07-20T06:49:30;100745.53;;;16.52
76381;BMP280;65202;52.520;10.528;2023-07-20T06:51:57;100749.59;;;16.46
76381;BMP280;65202;52.520;10.528;2023-07-20T06:54:24;100734.78;;;16.64
76381;BMP280;65202;52.520;10.528;2023-07-20T06:56:52;100736.47;;;16.62
76381;BMP280;65202;52.520;10.528;2023-07-20T06:59:23;100731.69;;;16.77
76381;BMP280;65202;52.520;10.528;2023-07-20T07:01:51;100738.22;;;16.66
76381;BMP280;65202;52.520;10.528;2023-07-20T07:04:18;100735.03;;;16.76
76381;BMP280;65202;52.520;10.528;2023-07-20T07:06:46;100728.53;;;16.87
76381;BMP280;65202;52.520;10.528;2023-07-20T07:09:13;100734.03;;;17.10
76381;BMP280;65202;52.520;10.528;2023-07-20T07:11:40;100727.28;;;17.12
76381;BMP280;65202;52.520;10.528;2023-07-20T07:14:08;100735.19;;;17.29
76381;BMP280;65202;52.520;10.528;2023-07-20T07:16:35;100739.56;;;17.37
76381;BMP280;65202;52.520;10.528;2023-07-20T07:19:05;100734.41;;;17.31
76381;BMP280;65202;52.520;10.528;2023-07-20T07:21:34;100738.53;;;17.26
76381;BMP280;65202;52.520;10.528;2023-07-20T07:24:01;100737.13;;;17.42
76381;BMP280;65202;52.520;10.528;2023-07-20T07:26:28;100739.44;;;17.28
76381;BMP280;65202;52.520;10.528;2023-07-20T07:28:56;100743.31;;;17.60
76381;BMP280;65202;52.520;10.528;2023-07-20T07:31:25;100740.59;;;17.47
76381;BMP280;65202;52.520;10.528;2023-07-20T07:33:52;100744.94;;;17.55
76381;BMP280;65202;52.520;10.528;2023-07-20T07:36:19;100744.34;;;17.69
76381;BMP280;65202;52.520;10.528;2023-07-20T07:38:47;100746.59;;;17.53
76381;BMP280;65202;52.520;10.528;2023-07-20T07:41:35;100752.91;;;17.79
76381;BMP280;65202;52.520;10.528;2023-07-20T07:44:02;100758.38;;;17.53
76381;BMP280;65202;52.520;10.528;2023-07-20T07:46:29;100744.66;;;18.49
76381;BMP280;65202;52.520;10.528;2023-07-20T07:48:57;100746.03;;;18.96
76381;BMP280;65202;52.520;10.528;2023-07-20T07:51:24;100751.31;;;19.14
76381;BMP280;65202;52.520;10.528;2023-07-20T07:53:51;100750.66;;;19.31
76381;BMP280;65202;52.520;10.528;2023-07-20T07:56:18;100759.09;;;19.32
76381;BMP280;65202;52.520;10.528;2023-07-20T07:58:51;100758.25;;;19.30
76381;BMP280;65202;52.520;10.528;2023-07-20T08:01:21;100751.56;;;20.70
76381;BMP280;65202;52.520;10.528;2023-07-20T08:03:49;100743.19;;;20.99
76381;BMP280;65202;52.520;10.528;2023-07-20T08:06:16;100746.69;;;21.57
76381;BMP280;65202;52.520;10.528;2023-07-20T08:08:44;100750.06;;;21.58
76381;BMP280;65202;52.520;10.528;2023-07-20T08:11:11;100754.28;;;21.46
76381;BMP280;65202;52.520;10.528;2023-07-20T08:13:41;100751.69;;;22.16
76381;BMP280;65202;52.520;10.528;2023-07-20T08:16:08;100758.13;;;20.22
76381;BMP280;65202;52.520;10.528;2023-07-20T08:18:36;100758.34;;;20.69
76381;BMP280;65202;52.520;10.528;2023-07-20T08:21:03;100750.66;;;20.48
76381;BMP280;65202;52.520;10.528;2023-07-20T08:23:30;100768.00;;;19.81
76381;BMP280;65202;52.520;10.528;2023-07-20T08:25:58;100759.34;;;22.10
76381;BMP280;65202;52.520;10.528;2023-07-20T08:28:25;100761.91;;;21.22
76381;BMP280;65202;52.520;10.528;2023-07-20T08:30:53;100755.94;;;22.25
76381;BMP280;65202;52.520;10.528;2023-07-20T08:33:21;100757.25;;;23.19
76381;BMP280;65202;52.520;10.528;2023-07-20T08:35:48;100750.94;;;24.51
76381;BMP280;65202;52.520;10.528;2023-07-20T08:38:15;100741.63;;;25.10
76381;BMP280;65202;52.520;10.528;2023-07-20T08:40:45;100745.88;;;25.10
76381;BMP280;65202;52.520;10.528;2023-07-20T08:43:14;100742.31;;;23.77
76381;BMP280;65202;52.520;10.528;2023-07-20T08:45:45;100763.59;;;21.24
76381;BMP280;65202;52.520;10.528;2023-07-20T08:48:15;100766.09;;;20.93
76381;BMP280;65202;52.520;10.528;2023-07-20T08:50:45;100750.34;;;23.33
76381;BMP280;65202;52.520;10.528;2023-07-20T08:53:12;100758.34;;;23.96
76381;BMP280;65202;52.520;10.528;2023-07-20T08:55:43;100743.63;;;24.17
76381;BMP280;65202;52.520;10.528;2023-07-20T08:58:12;100770.34;;;22.38
76381;BMP280;65202;52.520;10.528;2023-07-20T09:00:42;100768.97;;;23.44
76381;BMP280;65202;52.520;10.528;2023-07-20T09:03:14;100749.34;;;25.04
76381;BMP280;65202;52.520;10.528;2023-07-20T09:05:42;100743.41;;;25.05
76381;BMP280;65202;52.520;10.528;2023-07-20T09:08:09;100756.50;;;22.99
76381;BMP280;65202;52.520;10.528;2023-07-20T09:10:36;100759.75;;;23.25
76381;BMP280;65202;52.520;10.528;2023-07-20T09:13:04;100746.84;;;24.34
76381;BMP280;65202;52.520;10.528;2023-07-20T09:15:33;100737.41;;;25.03
76381;BMP280;65202;52.520;10.528;2023-07-20T09:18:01;100731.69;;;25.43
76381;BMP280;65202;52.520;10.528;2023-07-20T09:20:32;100731.66;;;24.88
76381;BMP280;65202;52.520;10.528;2023-07-20T09:23:04;100718.09;;;26.72
76381;BMP280;65202;52.520;10.528;2023-07-20T09:25:33;100719.72;;;26.78
76381;BMP280;65202;52.520;10.528;2023-07-20T09:28:02;100730.31;;;25.76
76381;BMP280;65202;52.520;10.528;2023-07-20T09:30:32;100726.38;;;24.98
76381;BMP280;65202;52.520;10.528;2023-07-20T09:33:00;100733.69;;;24.64
76381;BMP280;65202;52.520;10.528;2023-07-20T09:35:27;100739.19;;;24.98
76381;BMP280;65202;52.520;10.528;2023-07-20T09:38:08;100729.50;;;26.17
76381;BMP280;65202;52.520;10.528;2023-07-20T09:40:39;100734.69;;;25.17
76381;BMP280;65202;52.520;10.528;2023-07-20T09:43:10;100729.59;;;24.54
76381;BMP280;65202;52.520;10.528;2023-07-20T09:45:42;100719.81;;;25.38
76381;BMP280;65202;52.520;10.528;2023-07-20T09:48:12;100719.97;;;25.79
76381;BMP280;65202;52.520;10.528;2023-07-20T09:50:49;100726.19;;;24.52
76381;BMP280;65202;52.520;10.528;2023-07-20T09:53:18;100721.59;;;24.77
76381;BMP280;65202;52.520;10.528;2023-07-20T09:55:47;100715.84;;;25.69
76381;BMP280;65202;52.520;10.528;2023-07-20T09:58:16;100697.69;;;27.06
76381;BMP280;65202;52.520;10.528;2023-07-20T10:00:45;100721.59;;;25.33
76381;BMP280;65202;52.520;10.528;2023-07-20T10:03:22;100718.03;;;25.93
76381;BMP280;65202;52.520;10.528;2023-07-20T10:06:03;100710.72;;;26.58
76381;BMP280;65202;52.520;10.528;2023-07-20T10:08:38;100710.19;;;26.44
76381;BMP280;65202;52.520;10.528;2023-07-20T10:11:11;100713.16;;;25.28
76381;BMP280;65202;52.520;10.528;2023-07-20T10:13:43;100711.16;;;25.45
76381;BMP280;65202;52.520;10.528;2023-07-20T10:16:22;100719.69;;;24.21
76381;BMP280;65202;52.520;10.528;2023-07-20T10:19:06;100706.72;;;25.54
76381;BMP280;65202;52.520;10.528;2023-07-20T10:21:47;100711.44;;;23.98
76381;BMP280;65202;52.520;10.528;2023-07-20T10:24:25;100721.25;;;23.50
76381;BMP280;65202;52.520;10.528;2023-07-20T10:26:55;100711.47;;;23.92
76381;BMP280;65202;52.520;10.528;2023-07-20T10:29:23;100707.00;;;23.24
76381;BMP280;65202;52.520;10.528;2023-07-20T10:31:52;100709.44;;;23.34
76381;BMP280;65202;52.520;10.528;2023-07-20T10:34:22;100719.16;;;22.77
76381;BMP280;65202;52.520;10.528;2023-07-20T10:36:49;100709.53;;;24.13
76381;BMP280;65202;52.520;10.528;2023-07-20T10:39:25;100703.47;;;24.23
76381;BMP280;65202;52.520;10.528;2023-07-20T10:42:08;100702.75;;;24.11
76381;BMP280;65202;52.520;10.528;2023-07-20T10:44:37;100696.13;;;23.95
76381;BMP280;65202;52.520;10.528;2023-07-20T10:47:09;100694.38;;;24.00
76381;BMP280;65202;52.520;10.528;2023-07-20T10:49:58;100690.84;;;24.79
76381;BMP280;65202;52.520;10.528;2023-07-20T10:52:41;100708.28;;;23.74
76381;BMP280;65202;52.520;10.528;2023-07-20T10:55:16;100694.50;;;24.60
76381;BMP280;65202;52.520;10.528;2023-07-20T10:58:07;100698.91;;;23.74
76381;BMP280;65202;52.520;10.528;2023-07-20T11:00:37;100698.69;;;22.89
76381;BMP280;65202;52.520;10.528;2023-07-20T11:11:29;100714.06;;;22.80
76381;BMP280;65202;52.520;10.528;2023-07-20T11:14:02;100707.66;;;23.44
76381;BMP280;65202;52.520;10.528;2023-07-20T11:19:05;100704.97;;;23.60
76381;BMP280;65202;52.520;10.528;2023-07-20T11:22:04;100691.00;;;23.95
76381;BMP280;65202;52.520;10.528;2023-07-20T11:24:38;100681.50;;;24.08
76381;BMP280;65202;52.520;10.528;2023-07-20T11:27:09;100689.75;;;24.27
76381;BMP280;65202;52.520;10.528;2023-07-20T11:29:37;100683.28;;;25.26
76381;BMP280;65202;52.520;10.528;2023-07-20T11:32:05;100695.47;;;23.77
76381;BMP280;65202;52.520;10.528;2023-07-20T11:34:34;100678.81;;;24.84
76381;BMP280;65202;52.520;10.528;2023-07-20T11:37:02;100693.50;;;24.72
76381;BMP280;65202;52.520;10.528;2023-07-20T11:39:33;100682.28;;;24.11
76381;BMP280;65202;52.520;10.528;2023-07-20T11:42:01;100677.59;;;24.47
76381;BMP280;65202;52.520;10.528;2023-07-20T11:44:28;100672.69;;;24.29
76381;BMP280;65202;52.520;10.528;2023-07-20T11:47:00;100681.25;;;24.27
76381;BMP280;65202;52.520;10.528;2023-07-20T11:49:39;100675.78;;;23.83
76381;BMP280;65202;52.520;10.528;2023-07-20T11:52:09;100686.13;;;24.49
76381;BMP280;65202;52.520;10.528;2023-07-20T11:54:39;100666.91;;;24.81
76381;BMP280;65202;52.520;10.528;2023-07-20T11:57:18;100673.63;;;25.41
76381;BMP280;65202;52.520;10.528;2023-07-20T11:59:58;100677.22;;;25.31
76381;BMP280;65202;52.520;10.528;2023-07-20T12:02:32;100672.94;;;25.32
76381;BMP280;65202;52.520;10.528;2023-07-20T12:04:59;100675.63;;;25.24
76381;BMP280;65202;52.520;10.528;2023-07-20T12:07:27;100673.88;;;25.26
76381;BMP280;65202;52.520;10.528;2023-07-20T12:10:08;100668.78;;;25.25
76381;BMP280;65202;52.520;10.528;2023-07-20T12:12:42;100659.59;;;25.63
76381;BMP280;65202;52.520;10.528;2023-07-20T12:15:17;100660.19;;;25.27
76381;BMP280;65202;52.520;10.528;2023-07-20T12:17:52;100667.38;;;25.04
76381;BMP280;65202;52.520;10.528;2023-07-20T12:20:37;100654.47;;;24.55
76381;BMP280;65202;52.520;10.528;2023-07-20T12:23:09;100672.03;;;24.14
76381;BMP280;65202;52.520;10.528;2023-07-20T12:25:46;100669.50;;;24.11
76381;BMP280;65202;52.520;10.528;2023-07-20T12:28:16;100668.25;;;25.03
76381;BMP280;65202;52.520;10.528;2023-07-20T12:30:46;100659.56;;;24.56
76381;BMP280;65202;52.520;10.528;2023-07-20T12:33:15;100663.56;;;24.11
76381;BMP280;65202;52.520;10.528;2023-07-20T12:35:43;100669.47;;;24.15
76381;BMP280;65202;52.520;10.528;2023-07-20T12:38:11;100662.16;;;24.55
76381;BMP280;65202;52.520;10.528;2023-07-20T12:40:38;100679.66;;;23.32
76381;BMP280;65202;52.520;10.528;2023-07-20T12:43:05;100667.06;;;23.14
76381;BMP280;65202;52.520;10.528;2023-07-20T12:45:34;100678.38;;;22.70
76381;BMP280;65202;52.520;10.528;2023-07-20T12:48:01;100663.06;;;23.79
76381;BMP280;65202;52.520;10.528;2023-07-20T12:50:28;100661.16;;;23.96
76381;BMP280;65202;52.520;10.528;2023-07-20T12:52:56;100663.44;;;23.40
76381;BMP280;65202;52.520;10.528;2023-07-20T12:55:24;100669.31;;;23.44
76381;BMP280;65202;52.520;10.528;2023-07-20T12:57:51;100646.41;;;24.20
76381;BMP280;65202;52.520;10.528;2023-07-20T13:00:19;100649.56;;;24.40
76381;BMP280;65202;52.520;10.528;2023-07-20T13:02:46;100653.69;;;24.50
76381;BMP280;65202;52.520;10.528;2023-07-20T13:05:14;100647.34;;;24.75
76381;BMP280;65202;52.520;10.528;2023-07-20T13:07:42;100630.22;;;24.79
76381;BMP280;65202;52.520;10.528;2023-07-20T13:10:12;100641.47;;;24.05
76381;BMP280;65202;52.520;10.528;2023-07-20T13:12:40;100649.16;;;24.02
76381;BMP280;65202;52.520;10.528;2023-07-20T13:15:10;100650.38;;;23.71
76381;BMP280;65202;52.520;10.528;2023-07-20T13:17:39;100659.09;;;23.47
76381;BMP280;65202;52.520;10.528;2023-07-20T13:20:08;100668.44;;;23.49
76381;BMP280;65202;52.520;10.528;2023-07-20T13:22:38;100662.28;;;23.69
76381;BMP280;65202;52.520;10.528;2023-07-20T13:25:07;100665.66;;;22.65
76381;BMP280;65202;52.520;10.528;2023-07-20T13:27:35;100664.66;;;22.87
76381;BMP280;65202;52.520;10.528;2023-07-20T13:30:05;100661.88;;;23.21
76381;BMP280;65202;52.520;10.528;2023-07-20T13:32:36;100659.19;;;23.35
76381;BMP280;65202;52.520;10.528;2023-07-20T13:35:07;100653.41;;;23.18
76381;BMP280;65202;52.520;10.528;2023-07-20T13:37:34;100660.13;;;23.25
76381;BMP280;65202;52.520;10.528;2023-07-20T13:40:02;100672.44;;;22.69
76381;BMP280;65202;52.520;10.528;2023-07-20T13:42:34;100664.50;;;23.11
76381;BMP280;65202;52.520;10.528;2023-07-20T13:45:01;100664.56;;;23.05
76381;BMP280;65202;52.520;10.528;2023-07-20T13:47:32;100671.72;;;22.43
76381;BMP280;65202;52.520;10.528;2023-07-20T13:50:00;100673.59;;;21.94
76381;BMP280;65202;52.520;10.528;2023-07-20T13:52:30;100665.84;;;22.20
76381;BMP280;65202;52.520;10.528;2023-07-20T13:55:01;100668.94;;;22.85
76381;BMP280;65202;52.520;10.528;2023-07-20T13:57:31;100665.41;;;23.07
76381;BMP280;65202;52.520;10.528;2023-07-20T14:00:03;100679.25;;;22.69
76381;BMP280;65202;52.520;10.528;2023-07-20T14:02:33;100677.63;;;22.53
76381;BMP280;65202;52.520;10.528;2023-07-20T14:05:03;100674.06;;;22.79
76381;BMP280;65202;52.520;10.528;2023-07-20T14:07:33;100678.59;;;22.28
76381;BMP280;65202;52.520;10.528;2023-07-20T14:10:01;100681.13;;;22.34